sensor_id;sensor_type;location;lat;lon;timestamp;P1;durP1;ratioP1;P2;durP2;ratioP2
85498;SDS011;75903;52.510;13.396;2024-02-21T00:01:03;16.25;;;4.28;;
85498;SDS011;75903;52.510;13.396;2024-02-21T00:03:29;10.57;;;3.88;;
85498;SDS011;75903;52.510;13.396;2024-02-21T00:05:54;11.45;;;4.57;;
85498;SDS011;75903;52.510;13.396;2024-02-21T00:08:19;11.10;;;3.50;;
85498;SDS011;75903;52.510;13.396;2024-02-21T00:10:45;16.90;;;4.70;;
85498;SDS011;75903;52.510;13.396;2024-02-21T00:13:10;11.68;;;4.18;;
85498;SDS011;75903;52.510;13.396;2024-02-21T00:15:35;10.77;;;3.80;;
85498;SDS011;75903;52.510;13.396;2024-02-21T00:18:01;12.93;;;4.15;;
85498;SDS011;75903;52.510;13.396;2024-02-21T00:20:26;14.38;;;4.65;;
85498;SDS011;75903;52.510;13.396;2024-02-21T00:22:51;16.13;;;4.38;;
85498;SDS011;75903;52.510;13.396;2024-02-21T00:25:17;10.27;;;4.57;;
85498;SDS011;75903;52.510;13.396;2024-02-21T00:27:43;9.38;;;4.00;;
85498;SDS011;75903;52.510;13.396;2024-02-21T00:30:08;16.73;;;4.70;;
85498;SDS011;75903;52.510;13.396;2024-02-21T00:32:34;12.65;;;3.53;;
85498;SDS011;75903;52.510;13.396;2024-02-21T00:35:00;12.93;;;3.88;;
85498;SDS011;75903;52.510;13.396;2024-02-21T00:37:26;15.77;;;3.63;;
85498;SDS011;75903;52.510;13.396;2024-02-21T00:39:51;15.68;;;4.63;;
85498;SDS011;75903;52.510;13.396;2024-02-21T00:42:18;18.25;;;4.63;;
85498;SDS011;75903;52.510;13.396;2024-02-21T00:44:43;12.02;;;2.80;;
85498;SDS011;75903;52.510;13.396;2024-02-21T00:47:09;16.08;;;4.25;;
85498;SDS011;75903;52.510;13.396;2024-02-21T00:49:35;12.02;;;3.58;;
85498;SDS011;75903;52.510;13.396;2024-02-21T00:52:00;17.92;;;4.45;;
85498;SDS011;75903;52.510;13.396;2024-02-21T00:54:25;9.45;;;3.42;;
85498;SDS011;75903;52.510;13.396;2024-02-21T00:56:51;13.07;;;3.65;;
85498;SDS011;75903;52.510;13.396;2024-02-21T00:59:16;14.60;;;3.85;;
85498;SDS011;75903;52.510;13.396;2024-02-21T01:01:41;11.25;;;3.50;;
85498;SDS011;75903;52.510;13.396;2024-02-21T01:04:08;13.07;;;4.22;;
85498;SDS011;75903;52.510;13.396;2024-02-21T01:06:34;14.10;;;4.10;;
85498;SDS011;75903;52.510;13.396;2024-02-21T01:08:59;15.38;;;3.45;;
85498;SDS011;75903;52.510;13.396;2024-02-21T01:11:25;14.35;;;3.60;;
85498;SDS011;75903;52.510;13.396;2024-02-21T01:13:50;11.57;;;3.88;;
85498;SDS011;75903;52.510;13.396;2024-02-21T01:16:15;9.40;;;2.95;;
85498;SDS011;75903;52.510;13.396;2024-02-21T01:18:41;10.52;;;3.00;;
85498;SDS011;75903;52.510;13.396;2024-02-21T01:21:06;10.70;;;3.33;;
85498;SDS011;75903;52.510;13.396;2024-02-21T01:23:32;15.75;;;3.97;;
85498;SDS011;75903;52.510;13.396;2024-02-21T01:25:59;10.75;;;3.08;;
85498;SDS011;75903;52.510;13.396;2024-02-21T01:28:24;18.20;;;2.85;;
85498;SDS011;75903;52.510;13.396;2024-02-21T01:30:49;12.82;;;3.95;;
85498;SDS011;75903;52.510;13.396;2024-02-21T01:33:15;10.70;;;3.55;;
85498;SDS011;75903;52.510;13.396;2024-02-21T01:35:40;13.45;;;3.42;;
85498;SDS011;75903;52.510;13.396;2024-02-21T01:38:06;11.40;;;3.83;;
85498;SDS011;75903;52.510;13.396;2024-02-21T01:40:31;9.43;;;3.75;;
85498;SDS011;75903;52.510;13.396;2024-02-21T01:42:57;14.68;;;4.45;;
85498;SDS011;75903;52.510;13.396;2024-02-21T01:45:22;10.30;;;3.67;;
85498;SDS011;75903;52.510;13.396;2024-02-21T01:47:48;5.97;;;2.58;;
85498;SDS011;75903;52.510;13.396;2024-02-21T01:50:15;10.13;;;2.95;;
85498;SDS011;75903;52.510;13.396;2024-02-21T01:52:41;9.27;;;2.47;;
85498;SDS011;75903;52.510;13.396;2024-02-21T01:55:09;8.88;;;3.10;;
85498;SDS011;75903;52.510;13.396;2024-02-21T01:57:35;15.55;;;4.72;;
85498;SDS011;75903;52.510;13.396;2024-02-21T02:00:01;11.50;;;3.75;;
85498;SDS011;75903;52.510;13.396;2024-02-21T02:02:27;12.50;;;3.65;;
85498;SDS011;75903;52.510;13.396;2024-02-21T02:04:53;11.00;;;3.30;;
85498;SDS011;75903;52.510;13.396;2024-02-21T02:07:19;9.50;;;3.25;;
85498;SDS011;75903;52.510;13.396;2024-02-21T02:09:44;8.48;;;3.00;;
85498;SDS011;75903;52.510;13.396;2024-02-21T02:12:10;14.05;;;3.25;;
85498;SDS011;75903;52.510;13.396;2024-02-21T02:14:35;9.13;;;2.97;;
85498;SDS011;75903;52.510;13.396;2024-02-21T02:17:00;10.07;;;3.67;;
85498;SDS011;75903;52.510;13.396;2024-02-21T02:19:26;8.20;;;3.00;;
85498;SDS011;75903;52.510;13.396;2024-02-21T02:21:53;7.55;;;2.50;;
85498;SDS011;75903;52.510;13.396;2024-02-21T02:24:24;11.85;;;3.15;;
85498;SDS011;75903;52.510;13.396;2024-02-21T02:26:53;8.82;;;3.10;;
85498;SDS011;75903;52.510;13.396;2024-02-21T02:29:18;11.75;;;2.72;;
85498;SDS011;75903;52.510;13.396;2024-02-21T02:31:44;14.50;;;3.60;;
85498;SDS011;75903;52.510;13.396;2024-02-21T02:34:09;10.68;;;3.72;;
85498;SDS011;75903;52.510;13.396;2024-02-21T02:36:35;8.10;;;3.20;;
85498;SDS011;75903;52.510;13.396;2024-02-21T02:39:01;9.13;;;3.10;;
85498;SDS011;75903;52.510;13.396;2024-02-21T02:41:26;11.82;;;3.53;;
85498;SDS011;75903;52.510;13.396;2024-02-21T02:43:51;11.60;;;3.47;;
85498;SDS011;75903;52.510;13.396;2024-02-21T02:46:17;8.65;;;3.30;;
85498;SDS011;75903;52.510;13.396;2024-02-21T02:48:42;11.73;;;3.00;;
85498;SDS011;75903;52.510;13.396;2024-02-21T02:51:07;13.05;;;3.30;;
85498;SDS011;75903;52.510;13.396;2024-02-21T02:53:33;14.52;;;3.92;;
85498;SDS011;75903;52.510;13.396;2024-02-21T02:55:58;13.70;;;3.72;;
85498;SDS011;75903;52.510;13.396;2024-02-21T02:58:24;16.73;;;3.42;;
85498;SDS011;75903;52.510;13.396;2024-02-21T03:00:49;11.98;;;3.65;;
85498;SDS011;75903;52.510;13.396;2024-02-21T03:03:14;9.40;;;3.53;;
85498;SDS011;75903;52.510;13.396;2024-02-21T03:05:40;12.05;;;3.92;;
85498;SDS011;75903;52.510;13.396;2024-02-21T03:08:05;11.45;;;3.65;;
85498;SDS011;75903;52.510;13.396;2024-02-21T03:10:32;11.13;;;3.63;;
85498;SDS011;75903;52.510;13.396;2024-02-21T03:12:58;12.65;;;3.13;;
85498;SDS011;75903;52.510;13.396;2024-02-21T03:15:23;9.10;;;3.38;;
85498;SDS011;75903;52.510;13.396;2024-02-21T03:17:49;10.02;;;3.95;;
85498;SDS011;75903;52.510;13.396;2024-02-21T03:20:14;13.95;;;3.80;;
85498;SDS011;75903;52.510;13.396;2024-02-21T03:22:40;12.05;;;3.60;;
85498;SDS011;75903;52.510;13.396;2024-02-21T03:25:06;7.97;;;3.13;;
85498;SDS011;75903;52.510;13.396;2024-02-21T03:27:32;15.95;;;4.57;;
85498;SDS011;75903;52.510;13.396;2024-02-21T03:29:57;9.32;;;3.42;;
85498;SDS011;75903;52.510;13.396;2024-02-21T03:32:22;10.15;;;3.67;;
85498;SDS011;75903;52.510;13.396;2024-02-21T03:34:48;10.93;;;4.15;;
85498;SDS011;75903;52.510;13.396;2024-02-21T03:37:13;12.80;;;3.80;;
85498;SDS011;75903;52.510;13.396;2024-02-21T03:39:39;8.85;;;2.90;;
85498;SDS011;75903;52.510;13.396;2024-02-21T03:42:05;10.60;;;4.25;;
85498;SDS011;75903;52.510;13.396;2024-02-21T03:44:31;19.08;;;4.43;;
85498;SDS011;75903;52.510;13.396;2024-02-21T03:46:57;17.75;;;4.78;;
85498;SDS011;75903;52.510;13.396;2024-02-21T03:49:22;9.18;;;3.80;;
85498;SDS011;75903;52.510;13.396;2024-02-21T03:51:48;16.02;;;4.57;;
85498;SDS011;75903;52.510;13.396;2024-02-21T03:54:13;11.18;;;4.20;;
85498;SDS011;75903;52.510;13.396;2024-02-21T03:56:38;15.25;;;4.13;;
85498;SDS011;75903;52.510;13.396;2024-02-21T03:59:05;8.82;;;4.20;;
85498;SDS011;75903;52.510;13.396;2024-02-21T04:01:31;8.32;;;3.35;;
85498;SDS011;75903;52.510;13.396;2024-02-21T04:03:56;10.80;;;4.40;;
85498;SDS011;75903;52.510;13.396;2024-02-21T04:06:22;11.10;;;3.53;;
85498;SDS011;75903;52.510;13.396;2024-02-21T04:08:47;11.93;;;4.80;;
85498;SDS011;75903;52.510;13.396;2024-02-21T04:11:12;12.85;;;4.28;;
85498;SDS011;75903;52.510;13.396;2024-02-21T04:13:38;12.75;;;4.63;;
85498;SDS011;75903;52.510;13.396;2024-02-21T04:16:03;8.65;;;3.97;;
85498;SDS011;75903;52.510;13.396;2024-02-21T04:18:30;13.52;;;4.10;;
85498;SDS011;75903;52.510;13.396;2024-02-21T04:20:56;15.32;;;4.93;;
85498;SDS011;75903;52.510;13.396;2024-02-21T04:23:21;10.25;;;3.75;;
85498;SDS011;75903;52.510;13.396;2024-02-21T04:25:46;13.77;;;5.70;;
85498;SDS011;75903;52.510;13.396;2024-02-21T04:28:12;11.88;;;4.00;;
85498;SDS011;75903;52.510;13.396;2024-02-21T04:30:37;11.40;;;3.90;;
85498;SDS011;75903;52.510;13.396;2024-02-21T04:33:02;14.32;;;4.78;;
85498;SDS011;75903;52.510;13.396;2024-02-21T04:35:28;16.27;;;4.10;;
85498;SDS011;75903;52.510;13.396;2024-02-21T04:37:53;16.92;;;4.13;;
85498;SDS011;75903;52.510;13.396;2024-02-21T04:40:19;9.13;;;4.10;;
85498;SDS011;75903;52.510;13.396;2024-02-21T04:42:44;15.70;;;4.28;;
85498;SDS011;75903;52.510;13.396;2024-02-21T04:45:09;13.57;;;4.45;;
85498;SDS011;75903;52.510;13.396;2024-02-21T04:47:35;12.70;;;4.25;;
85498;SDS011;75903;52.510;13.396;2024-02-21T04:50:00;16.20;;;4.85;;
85498;SDS011;75903;52.510;13.396;2024-02-21T04:52:26;13.27;;;4.43;;
85498;SDS011;75903;52.510;13.396;2024-02-21T04:54:51;10.80;;;4.18;;
85498;SDS011;75903;52.510;13.396;2024-02-21T04:57:17;13.18;;;3.70;;
85498;SDS011;75903;52.510;13.396;2024-02-21T04:59:45;13.25;;;4.47;;
85498;SDS011;75903;52.510;13.396;2024-02-21T05:02:14;12.77;;;3.88;;
85498;SDS011;75903;52.510;13.396;2024-02-21T05:04:39;13.48;;;4.13;;
85498;SDS011;75903;52.510;13.396;2024-02-21T05:07:06;8.43;;;3.05;;
85498;SDS011;75903;52.510;13.396;2024-02-21T05:09:32;13.77;;;4.57;;
85498;SDS011;75903;52.510;13.396;2024-02-21T05:11:57;15.57;;;5.10;;
85498;SDS011;75903;52.510;13.396;2024-02-21T05:14:26;10.65;;;3.72;;
85498;SDS011;75903;52.510;13.396;2024-02-21T05:16:54;12.23;;;4.72;;
85498;SDS011;75903;52.510;13.396;2024-02-21T05:19:19;11.93;;;4.40;;
85498;SDS011;75903;52.510;13.396;2024-02-21T05:21:45;13.70;;;4.07;;
85498;SDS011;75903;52.510;13.396;2024-02-21T05:24:11;9.43;;;3.30;;
85498;SDS011;75903;52.510;13.396;2024-02-21T05:26:36;15.68;;;3.58;;
85498;SDS011;75903;52.510;13.396;2024-02-21T05:29:01;14.68;;;4.53;;
85498;SDS011;75903;52.510;13.396;2024-02-21T05:31:29;14.05;;;3.90;;
85498;SDS011;75903;52.510;13.396;2024-02-21T05:34:19;16.88;;;4.15;;
85498;SDS011;75903;52.510;13.396;2024-02-21T05:36:45;12.48;;;4.55;;
85498;SDS011;75903;52.510;13.396;2024-02-21T05:39:11;12.10;;;4.50;;
85498;SDS011;75903;52.510;13.396;2024-02-21T05:41:38;11.57;;;4.22;;
85498;SDS011;75903;52.510;13.396;2024-02-21T05:44:03;11.57;;;4.95;;
85498;SDS011;75903;52.510;13.396;2024-02-21T05:46:29;12.10;;;5.03;;
85498;SDS011;75903;52.510;13.396;2024-02-21T05:48:54;13.68;;;4.07;;
85498;SDS011;75903;52.510;13.396;2024-02-21T05:51:19;14.20;;;4.28;;
85498;SDS011;75903;52.510;13.396;2024-02-21T05:53:45;17.65;;;4.63;;
85498;SDS011;75903;52.510;13.396;2024-02-21T05:56:10;15.10;;;5.32;;
85498;SDS011;75903;52.510;13.396;2024-02-21T05:58:37;13.35;;;4.85;;
85498;SDS011;75903;52.510;13.396;2024-02-21T06:01:02;10.68;;;3.53;;
85498;SDS011;75903;52.510;13.396;2024-02-21T06:03:28;14.93;;;4.22;;
85498;SDS011;75903;52.510;13.396;2024-02-21T06:05:54;18.42;;;5.47;;
85498;SDS011;75903;52.510;13.396;2024-02-21T06:08:28;13.35;;;5.75;;
85498;SDS011;75903;52.510;13.396;2024-02-21T06:10:54;14.85;;;3.78;;
85498;SDS011;75903;52.510;13.396;2024-02-21T06:13:28;15.38;;;4.95;;
85498;SDS011;75903;52.510;13.396;2024-02-21T06:16:02;9.88;;;3.92;;
85498;SDS011;75903;52.510;13.396;2024-02-21T06:18:35;14.38;;;4.30;;
85498;SDS011;75903;52.510;13.396;2024-02-21T06:21:07;10.18;;;3.75;;
85498;SDS011;75903;52.510;13.396;2024-02-21T06:24:48;16.08;;;4.63;;
85498;SDS011;75903;52.510;13.396;2024-02-21T06:27:06;8.98;;;4.03;;
85498;SDS011;75903;52.510;13.396;2024-02-21T06:29:38;26.10;;;4.95;;
85498;SDS011;75903;52.510;13.396;2024-02-21T06:32:05;11.80;;;4.90;;
85498;SDS011;75903;52.510;13.396;2024-02-21T06:34:51;15.18;;;5.07;;
85498;SDS011;75903;52.510;13.396;2024-02-21T06:37:16;10.27;;;4.70;;
85498;SDS011;75903;52.510;13.396;2024-02-21T06:39:44;14.82;;;5.03;;
85498;SDS011;75903;52.510;13.396;2024-02-21T06:42:13;14.10;;;4.95;;
85498;SDS011;75903;52.510;13.396;2024-02-21T06:44:42;13.10;;;4.30;;
85498;SDS011;75903;52.510;13.396;2024-02-21T06:47:29;15.13;;;6.13;;
85498;SDS011;75903;52.510;13.396;2024-02-21T06:49:55;11.02;;;5.03;;
85498;SDS011;75903;52.510;13.396;2024-02-21T06:52:21;14.95;;;5.18;;
85498;SDS011;75903;52.510;13.396;2024-02-21T06:54:47;11.25;;;4.60;;
85498;SDS011;75903;52.510;13.396;2024-02-21T06:57:13;12.35;;;5.05;;
85498;SDS011;75903;52.510;13.396;2024-02-21T06:59:40;21.60;;;7.65;;
85498;SDS011;75903;52.510;13.396;2024-02-21T07:02:06;12.60;;;5.47;;
85498;SDS011;75903;52.510;13.396;2024-02-21T07:04:32;17.90;;;5.40;;
85498;SDS011;75903;52.510;13.396;2024-02-21T07:06:57;20.98;;;5.45;;
85498;SDS011;75903;52.510;13.396;2024-02-21T07:09:22;14.50;;;6.28;;
85498;SDS011;75903;52.510;13.396;2024-02-21T07:11:48;17.95;;;5.05;;
85498;SDS011;75903;52.510;13.396;2024-02-21T07:14:17;13.13;;;6.22;;
85498;SDS011;75903;52.510;13.396;2024-02-21T07:16:43;14.60;;;5.97;;
85498;SDS011;75903;52.510;13.396;2024-02-21T07:19:09;12.68;;;5.05;;
85498;SDS011;75903;52.510;13.396;2024-02-21T07:21:34;14.00;;;5.28;;
85498;SDS011;75903;52.510;13.396;2024-02-21T07:23:59;14.05;;;5.30;;
85498;SDS011;75903;52.510;13.396;2024-02-21T07:26:25;13.38;;;5.82;;
85498;SDS011;75903;52.510;13.396;2024-02-21T07:28:50;10.55;;;4.78;;
85498;SDS011;75903;52.510;13.396;2024-02-21T07:31:16;16.50;;;6.15;;
85498;SDS011;75903;52.510;13.396;2024-02-21T07:33:41;14.75;;;4.50;;
85498;SDS011;75903;52.510;13.396;2024-02-21T07:36:07;14.32;;;5.47;;
85498;SDS011;75903;52.510;13.396;2024-02-21T07:38:35;17.83;;;5.50;;
85498;SDS011;75903;52.510;13.396;2024-02-21T07:41:00;11.48;;;4.78;;
85498;SDS011;75903;52.510;13.396;2024-02-21T07:43:25;12.00;;;5.55;;
85498;SDS011;75903;52.510;13.396;2024-02-21T07:45:51;8.65;;;4.15;;
85498;SDS011;75903;52.510;13.396;2024-02-21T07:48:18;12.32;;;4.75;;
85498;SDS011;75903;52.510;13.396;2024-02-21T07:50:44;13.45;;;5.50;;
85498;SDS011;75903;52.510;13.396;2024-02-21T07:53:09;11.07;;;5.53;;
85498;SDS011;75903;52.510;13.396;2024-02-21T07:55:35;7.63;;;4.10;;
85498;SDS011;75903;52.510;13.396;2024-02-21T07:58:00;14.20;;;3.95;;
85498;SDS011;75903;52.510;13.396;2024-02-21T08:00:26;17.58;;;5.35;;
85498;SDS011;75903;52.510;13.396;2024-02-21T08:02:51;14.25;;;5.03;;
85498;SDS011;75903;52.510;13.396;2024-02-21T08:05:17;15.18;;;5.10;;
85498;SDS011;75903;52.510;13.396;2024-02-21T08:07:43;14.10;;;4.78;;
85498;SDS011;75903;52.510;13.396;2024-02-21T08:10:08;15.35;;;4.18;;
85498;SDS011;75903;52.510;13.396;2024-02-21T08:12:33;14.60;;;5.00;;
85498;SDS011;75903;52.510;13.396;2024-02-21T08:14:59;17.17;;;4.63;;
85498;SDS011;75903;52.510;13.396;2024-02-21T08:17:25;17.13;;;5.80;;
85498;SDS011;75903;52.510;13.396;2024-02-21T08:19:50;11.13;;;4.68;;
85498;SDS011;75903;52.510;13.396;2024-02-21T08:22:16;17.33;;;5.35;;
85498;SDS011;75903;52.510;13.396;2024-02-21T08:24:41;14.55;;;4.97;;
85498;SDS011;75903;52.510;13.396;2024-02-21T08:27:07;11.57;;;4.82;;
85498;SDS011;75903;52.510;13.396;2024-02-21T08:29:32;14.20;;;4.90;;
85498;SDS011;75903;52.510;13.396;2024-02-21T08:31:58;11.10;;;4.80;;
85498;SDS011;75903;52.510;13.396;2024-02-21T08:34:23;13.90;;;4.68;;
85498;SDS011;75903;52.510;13.396;2024-02-21T08:36:48;13.73;;;4.75;;
85498;SDS011;75903;52.510;13.396;2024-02-21T08:39:14;14.18;;;5.57;;
85498;SDS011;75903;52.510;13.396;2024-02-21T08:41:41;13.90;;;5.40;;
85498;SDS011;75903;52.510;13.396;2024-02-21T08:44:07;16.23;;;5.75;;
85498;SDS011;75903;52.510;13.396;2024-02-21T08:46:32;13.65;;;5.00;;
85498;SDS011;75903;52.510;13.396;2024-02-21T08:48:58;16.88;;;6.22;;
85498;SDS011;75903;52.510;13.396;2024-02-21T08:51:23;11.82;;;4.97;;
85498;SDS011;75903;52.510;13.396;2024-02-21T08:53:49;14.50;;;6.13;;
85498;SDS011;75903;52.510;13.396;2024-02-21T08:56:18;13.85;;;5.28;;
85498;SDS011;75903;52.510;13.396;2024-02-21T08:58:44;16.23;;;5.70;;
85498;SDS011;75903;52.510;13.396;2024-02-21T09:01:09;17.00;;;5.57;;
85498;SDS011;75903;52.510;13.396;2024-02-21T09:03:38;12.98;;;5.47;;
85498;SDS011;75903;52.510;13.396;2024-02-21T09:06:04;18.08;;;6.32;;
85498;SDS011;75903;52.510;13.396;2024-02-21T09:08:33;13.70;;;6.10;;
85498;SDS011;75903;52.510;13.396;2024-02-21T09:11:01;12.52;;;5.50;;
85498;SDS011;75903;52.510;13.396;2024-02-21T09:13:27;14.30;;;5.30;;
85498;SDS011;75903;52.510;13.396;2024-02-21T09:15:53;13.90;;;5.63;;
85498;SDS011;75903;52.510;13.396;2024-02-21T09:18:18;11.40;;;4.68;;
85498;SDS011;75903;52.510;13.396;2024-02-21T09:20:43;13.20;;;5.32;;
85498;SDS011;75903;52.510;13.396;2024-02-21T09:23:10;11.48;;;5.97;;
85498;SDS011;75903;52.510;13.396;2024-02-21T09:25:35;14.30;;;5.85;;
85498;SDS011;75903;52.510;13.396;2024-02-21T09:28:01;15.95;;;5.97;;
85498;SDS011;75903;52.510;13.396;2024-02-21T09:30:27;15.82;;;5.88;;
85498;SDS011;75903;52.510;13.396;2024-02-21T09:32:53;14.98;;;6.20;;
85498;SDS011;75903;52.510;13.396;2024-02-21T09:35:19;10.32;;;4.60;;
85498;SDS011;75903;52.510;13.396;2024-02-21T09:37:47;17.20;;;6.38;;
85498;SDS011;75903;52.510;13.396;2024-02-21T09:40:12;11.02;;;4.40;;
85498;SDS011;75903;52.510;13.396;2024-02-21T09:42:41;14.07;;;5.88;;
85498;SDS011;75903;52.510;13.396;2024-02-21T09:45:25;14.95;;;6.32;;
85498;SDS011;75903;52.510;13.396;2024-02-21T09:47:54;17.15;;;6.20;;
85498;SDS011;75903;52.510;13.396;2024-02-21T09:50:22;13.18;;;5.88;;
85498;SDS011;75903;52.510;13.396;2024-02-21T09:52:49;15.13;;;6.28;;
85498;SDS011;75903;52.510;13.396;2024-02-21T09:55:18;11.52;;;6.07;;
85498;SDS011;75903;52.510;13.396;2024-02-21T09:57:44;18.02;;;6.30;;
85498;SDS011;75903;52.510;13.396;2024-02-21T10:00:09;15.30;;;6.40;;
85498;SDS011;75903;52.510;13.396;2024-02-21T10:02:35;12.35;;;5.75;;
85498;SDS011;75903;52.510;13.396;2024-02-21T10:05:02;12.02;;;6.00;;
85498;SDS011;75903;52.510;13.396;2024-02-21T10:07:29;14.88;;;5.88;;
85498;SDS011;75903;52.510;13.396;2024-02-21T10:10:02;7.80;;;4.65;;
85498;SDS011;75903;52.510;13.396;2024-02-21T10:12:28;15.05;;;6.13;;
85498;SDS011;75903;52.510;13.396;2024-02-21T10:15:00;13.80;;;6.40;;
85498;SDS011;75903;52.510;13.396;2024-02-21T10:17:29;7.82;;;4.22;;
85498;SDS011;75903;52.510;13.396;2024-02-21T10:19:54;12.30;;;5.50;;
85498;SDS011;75903;52.510;13.396;2024-02-21T10:22:20;14.35;;;6.25;;
85498;SDS011;75903;52.510;13.396;2024-02-21T10:24:46;14.32;;;5.90;;
85498;SDS011;75903;52.510;13.396;2024-02-21T10:27:12;17.27;;;5.38;;
85498;SDS011;75903;52.510;13.396;2024-02-21T10:29:37;14.50;;;6.00;;
85498;SDS011;75903;52.510;13.396;2024-02-21T10:32:07;15.20;;;5.68;;
85498;SDS011;75903;52.510;13.396;2024-02-21T10:34:33;13.48;;;5.35;;
85498;SDS011;75903;52.510;13.396;2024-02-21T10:37:00;11.70;;;5.57;;
85498;SDS011;75903;52.510;13.396;2024-02-21T10:39:32;14.77;;;5.18;;
85498;SDS011;75903;52.510;13.396;2024-02-21T10:42:00;8.75;;;3.88;;
85498;SDS011;75903;52.510;13.396;2024-02-21T10:44:30;10.77;;;5.63;;
85498;SDS011;75903;52.510;13.396;2024-02-21T10:46:58;8.95;;;4.65;;
85498;SDS011;75903;52.510;13.396;2024-02-21T10:49:25;13.90;;;5.90;;
85498;SDS011;75903;52.510;13.396;2024-02-21T10:51:55;10.02;;;5.47;;
85498;SDS011;75903;52.510;13.396;2024-02-21T10:57:38;13.05;;;6.22;;
85498;SDS011;75903;52.510;13.396;2024-02-21T11:00:04;15.73;;;6.28;;
85498;SDS011;75903;52.510;13.396;2024-02-21T11:04:59;9.43;;;4.93;;
85498;SDS011;75903;52.510;13.396;2024-02-21T11:07:25;12.05;;;4.95;;
85498;SDS011;75903;52.510;13.396;2024-02-21T11:09:52;9.55;;;4.60;;
85498;SDS011;75903;52.510;13.396;2024-02-21T11:12:23;19.05;;;5.90;;
85498;SDS011;75903;52.510;13.396;2024-02-21T11:14:48;14.13;;;6.10;;
85498;SDS011;75903;52.510;13.396;2024-02-21T11:17:14;10.57;;;4.85;;
85498;SDS011;75903;52.510;13.396;2024-02-21T11:19:41;13.10;;;4.90;;
85498;SDS011;75903;52.510;13.396;2024-02-21T11:22:14;12.75;;;5.05;;
85498;SDS011;75903;52.510;13.396;2024-02-21T11:24:41;13.32;;;6.05;;
85498;SDS011;75903;52.510;13.396;2024-02-21T11:29:43;9.68;;;4.68;;
85498;SDS011;75903;52.510;13.396;2024-02-21T11:32:10;11.77;;;5.10;;
85498;SDS011;75903;52.510;13.396;2024-02-21T11:34:38;14.40;;;5.47;;
85498;SDS011;75903;52.510;13.396;2024-02-21T11:37:12;14.43;;;5.50;;
85498;SDS011;75903;52.510;13.396;2024-02-21T11:39:42;13.18;;;5.55;;
85498;SDS011;75903;52.510;13.396;2024-02-21T11:42:08;9.30;;;3.55;;
85498;SDS011;75903;52.510;13.396;2024-02-21T11:44:36;5.95;;;2.97;;
85498;SDS011;75903;52.510;13.396;2024-02-21T11:47:07;8.88;;;3.95;;
85498;SDS011;75903;52.510;13.396;2024-02-21T11:49:37;9.32;;;4.97;;
85498;SDS011;75903;52.510;13.396;2024-02-21T11:52:04;9.88;;;4.35;;
85498;SDS011;75903;52.510;13.396;2024-02-21T11:54:30;13.70;;;5.07;;
85498;SDS011;75903;52.510;13.396;2024-02-21T11:56:56;10.57;;;4.40;;
85498;SDS011;75903;52.510;13.396;2024-02-21T11:59:21;10.38;;;4.47;;
85498;SDS011;75903;52.510;13.396;2024-02-21T12:01:48;14.90;;;5.93;;
85498;SDS011;75903;52.510;13.396;2024-02-21T12:04:13;7.78;;;4.47;;
85498;SDS011;75903;52.510;13.396;2024-02-21T12:06:42;14.13;;;4.80;;
85498;SDS011;75903;52.510;13.396;2024-02-21T12:09:08;10.32;;;3.75;;
85498;SDS011;75903;52.510;13.396;2024-02-21T12:11:36;7.97;;;3.95;;
85498;SDS011;75903;52.510;13.396;2024-02-21T12:14:02;9.52;;;3.97;;
85498;SDS011;75903;52.510;13.396;2024-02-21T12:16:29;8.27;;;3.38;;
85498;SDS011;75903;52.510;13.396;2024-02-21T12:18:56;9.40;;;4.13;;
85498;SDS011;75903;52.510;13.396;2024-02-21T12:21:31;13.20;;;5.38;;
85498;SDS011;75903;52.510;13.396;2024-02-21T12:23:59;8.38;;;3.83;;
85498;SDS011;75903;52.510;13.396;2024-02-21T12:26:25;12.23;;;5.00;;
85498;SDS011;75903;52.510;13.396;2024-02-21T12:28:51;20.90;;;6.50;;
85498;SDS011;75903;52.510;13.396;2024-02-21T12:31:20;21.58;;;7.10;;
85498;SDS011;75903;52.510;13.396;2024-02-21T12:33:46;32.55;;;11.30;;
85498;SDS011;75903;52.510;13.396;2024-02-21T12:36:12;13.30;;;4.57;;
85498;SDS011;75903;52.510;13.396;2024-02-21T12:38:37;6.72;;;3.55;;
85498;SDS011;75903;52.510;13.396;2024-02-21T12:41:02;7.43;;;3.35;;
85498;SDS011;75903;52.510;13.396;2024-02-21T12:43:28;8.50;;;3.20;;
85498;SDS011;75903;52.510;13.396;2024-02-21T12:45:54;7.35;;;3.15;;
85498;SDS011;75903;52.510;13.396;2024-02-21T12:48:19;7.15;;;3.22;;
85498;SDS011;75903;52.510;13.396;2024-02-21T12:50:48;8.10;;;3.30;;
85498;SDS011;75903;52.510;13.396;2024-02-21T12:53:17;10.15;;;3.45;;
85498;SDS011;75903;52.510;13.396;2024-02-21T12:55:46;7.07;;;2.58;;
85498;SDS011;75903;52.510;13.396;2024-02-21T12:58:13;6.63;;;3.03;;
85498;SDS011;75903;52.510;13.396;2024-02-21T13:00:39;6.97;;;3.38;;
85498;SDS011;75903;52.510;13.396;2024-02-21T13:03:04;6.90;;;2.45;;
85498;SDS011;75903;52.510;13.396;2024-02-21T13:05:30;7.85;;;2.95;;
85498;SDS011;75903;52.510;13.396;2024-02-21T13:07:57;7.35;;;2.92;;
85498;SDS011;75903;52.510;13.396;2024-02-21T13:10:23;7.70;;;3.17;;
85498;SDS011;75903;52.510;13.396;2024-02-21T13:12:48;8.20;;;3.45;;
85498;SDS011;75903;52.510;13.396;2024-02-21T13:15:14;8.80;;;3.22;;
85498;SDS011;75903;52.510;13.396;2024-02-21T13:17:41;7.90;;;3.33;;
85498;SDS011;75903;52.510;13.396;2024-02-21T13:20:07;9.48;;;4.07;;
85498;SDS011;75903;52.510;13.396;2024-02-21T13:22:33;7.63;;;3.40;;
85498;SDS011;75903;52.510;13.396;2024-02-21T13:25:00;10.13;;;3.83;;
85498;SDS011;75903;52.510;13.396;2024-02-21T13:27:25;7.85;;;3.00;;
85498;SDS011;75903;52.510;13.396;2024-02-21T13:29:51;9.45;;;3.85;;
85498;SDS011;75903;52.510;13.396;2024-02-21T13:32:18;5.85;;;2.88;;
85498;SDS011;75903;52.510;13.396;2024-02-21T13:34:46;9.60;;;3.67;;
85498;SDS011;75903;52.510;13.396;2024-02-21T13:37:11;8.63;;;3.35;;
85498;SDS011;75903;52.510;13.396;2024-02-21T13:39:37;11.63;;;3.35;;
85498;SDS011;75903;52.510;13.396;2024-02-21T13:42:02;14.10;;;2.95;;
85498;SDS011;75903;52.510;13.396;2024-02-21T13:44:31;8.02;;;3.25;;
85498;SDS011;75903;52.510;13.396;2024-02-21T13:46:57;7.10;;;3.00;;
85498;SDS011;75903;52.510;13.396;2024-02-21T13:49:22;6.93;;;2.63;;
85498;SDS011;75903;52.510;13.396;2024-02-21T13:51:48;5.18;;;2.80;;
85498;SDS011;75903;52.510;13.396;2024-02-21T13:54:13;8.15;;;3.72;;
85498;SDS011;75903;52.510;13.396;2024-02-21T13:56:42;8.15;;;3.83;;
85498;SDS011;75903;52.510;13.396;2024-02-21T13:59:08;8.27;;;3.13;;
85498;SDS011;75903;52.510;13.396;2024-02-21T14:01:33;7.60;;;2.90;;
85498;SDS011;75903;52.510;13.396;2024-02-21T14:03:59;9.13;;;3.30;;
85498;SDS011;75903;52.510;13.396;2024-02-21T14:06:25;15.82;;;5.40;;
85498;SDS011;75903;52.510;13.396;2024-02-21T14:08:50;8.70;;;3.35;;
85498;SDS011;75903;52.510;13.396;2024-02-21T14:11:16;9.40;;;3.50;;
85498;SDS011;75903;52.510;13.396;2024-02-21T14:13:41;6.38;;;2.83;;
85498;SDS011;75903;52.510;13.396;2024-02-21T14:16:10;6.65;;;2.35;;
85498;SDS011;75903;52.510;13.396;2024-02-21T14:18:38;6.85;;;2.70;;
85498;SDS011;75903;52.510;13.396;2024-02-21T14:21:06;8.57;;;2.53;;
85498;SDS011;75903;52.510;13.396;2024-02-21T14:23:31;7.82;;;2.70;;
85498;SDS011;75903;52.510;13.396;2024-02-21T14:25:58;8.52;;;3.25;;
85498;SDS011;75903;52.510;13.396;2024-02-21T14:28:24;10.95;;;3.22;;
85498;SDS011;75903;52.510;13.396;2024-02-21T14:30:49;9.95;;;3.00;;